Terminal Aerodrome Forecast
Issued by NWS

Home | Current Version | Previous Version | Text Only | Print | Product List | Glossary On
Versions: 1 2 3 4 5 6 7 8 9 10 11 12 13 14 15 16 17
000
FTAK31 PAFA 161155
TAFASC
TAF
PASC 161155Z 1612/1712 VRB03KT P6SM VCFG SCT005 BKN090
      TEMPO 1613/1616 3SM BR BKN005
     FM161600 08005KT 3SM BR OVC005
     FM162100 09012KT P6SM OVC010=

USA.gov is the U.S. government's official web portal to all federal, state and local government web resources and services.